sensor_id;sensor_type;location;lat;lon;timestamp;temperature;humidity
28767;DHT22;15921;52.034;20.650;2023-05-07T00:01:36;6.90;99.90
28767;DHT22;15921;52.034;20.650;2023-05-07T00:04:02;6.90;99.90
28767;DHT22;15921;52.034;20.650;2023-05-07T00:06:29;6.90;99.90
28767;DHT22;15921;52.034;20.650;2023-05-07T00:08:56;6.90;99.90
28767;DHT22;15921;52.034;20.650;2023-05-07T00:11:21;6.90;99.90
28767;DHT22;15921;52.034;20.650;2023-05-07T00:13:48;6.90;99.90
28767;DHT22;15921;52.034;20.650;2023-05-07T00:16:13;6.90;99.90
28767;DHT22;15921;52.034;20.650;2023-05-07T00:18:39;6.80;99.90
28767;DHT22;15921;52.034;20.650;2023-05-07T00:21:05;6.80;99.90
28767;DHT22;15921;52.034;20.650;2023-05-07T00:23:31;6.80;99.90
28767;DHT22;15921;52.034;20.650;2023-05-07T00:25:56;6.70;99.90
28767;DHT22;15921;52.034;20.650;2023-05-07T00:28:22;6.70;99.90
28767;DHT22;15921;52.034;20.650;2023-05-07T00:30:48;6.70;99.90
28767;DHT22;15921;52.034;20.650;2023-05-07T00:33:13;6.70;99.90
28767;DHT22;15921;52.034;20.650;2023-05-07T00:35:39;6.70;99.90
28767;DHT22;15921;52.034;20.650;2023-05-07T00:38:05;6.60;99.90
28767;DHT22;15921;52.034;20.650;2023-05-07T00:40:30;6.60;99.90
28767;DHT22;15921;52.034;20.650;2023-05-07T00:42:56;6.60;99.90
28767;DHT22;15921;52.034;20.650;2023-05-07T00:45:26;6.60;99.90
28767;DHT22;15921;52.034;20.650;2023-05-07T00:47:57;6.60;99.90
28767;DHT22;15921;52.034;20.650;2023-05-07T00:50:24;6.50;99.90
28767;DHT22;15921;52.034;20.650;2023-05-07T00:52:50;6.50;99.90
28767;DHT22;15921;52.034;20.650;2023-05-07T00:55:16;6.50;99.90
28767;DHT22;15921;52.034;20.650;2023-05-07T00:57:42;6.50;99.90
28767;DHT22;15921;52.034;20.650;2023-05-07T01:00:09;6.50;99.90
28767;DHT22;15921;52.034;20.650;2023-05-07T01:02:35;6.50;99.90
28767;DHT22;15921;52.034;20.650;2023-05-07T01:05:02;6.50;99.90
28767;DHT22;15921;52.034;20.650;2023-05-07T01:07:31;6.50;99.90
28767;DHT22;15921;52.034;20.650;2023-05-07T01:09:58;6.40;99.90
28767;DHT22;15921;52.034;20.650;2023-05-07T01:12:24;6.50;99.90
28767;DHT22;15921;52.034;20.650;2023-05-07T01:14:50;6.50;99.90
28767;DHT22;15921;52.034;20.650;2023-05-07T01:17:16;6.40;99.90
28767;DHT22;15921;52.034;20.650;2023-05-07T01:19:42;6.40;99.90
28767;DHT22;15921;52.034;20.650;2023-05-07T01:22:10;6.40;99.90
28767;DHT22;15921;52.034;20.650;2023-05-07T01:24:37;6.40;99.90
28767;DHT22;15921;52.034;20.650;2023-05-07T01:27:03;6.30;99.90
28767;DHT22;15921;52.034;20.650;2023-05-07T01:29:29;6.30;99.90
28767;DHT22;15921;52.034;20.650;2023-05-07T01:31:59;6.30;99.90
28767;DHT22;15921;52.034;20.650;2023-05-07T01:34:28;6.30;99.90
28767;DHT22;15921;52.034;20.650;2023-05-07T01:36:54;6.30;99.90
28767;DHT22;15921;52.034;20.650;2023-05-07T01:39:23;6.30;99.90
28767;DHT22;15921;52.034;20.650;2023-05-07T01:41:49;6.30;99.90
28767;DHT22;15921;52.034;20.650;2023-05-07T01:44:16;6.30;99.90
28767;DHT22;15921;52.034;20.650;2023-05-07T01:46:43;6.30;99.90
28767;DHT22;15921;52.034;20.650;2023-05-07T01:49:10;6.30;99.90
28767;DHT22;15921;52.034;20.650;2023-05-07T01:51:36;6.30;99.90
28767;DHT22;15921;52.034;20.650;2023-05-07T01:54:02;6.30;99.90
28767;DHT22;15921;52.034;20.650;2023-05-07T01:56:27;6.30;99.90
28767;DHT22;15921;52.034;20.650;2023-05-07T01:58:53;6.40;99.90
28767;DHT22;15921;52.034;20.650;2023-05-07T02:01:19;6.30;99.90
28767;DHT22;15921;52.034;20.650;2023-05-07T02:03:44;6.30;99.90
28767;DHT22;15921;52.034;20.650;2023-05-07T02:06:10;6.30;99.90
28767;DHT22;15921;52.034;20.650;2023-05-07T02:08:36;6.30;99.90
28767;DHT22;15921;52.034;20.650;2023-05-07T02:11:02;6.30;99.90
28767;DHT22;15921;52.034;20.650;2023-05-07T02:13:32;6.30;99.90
28767;DHT22;15921;52.034;20.650;2023-05-07T02:15:58;6.30;99.90
28767;DHT22;15921;52.034;20.650;2023-05-07T02:18:24;6.30;99.90
28767;DHT22;15921;52.034;20.650;2023-05-07T02:20:49;6.30;99.90
28767;DHT22;15921;52.034;20.650;2023-05-07T02:23:15;6.30;99.90
28767;DHT22;15921;52.034;20.650;2023-05-07T02:25:41;6.30;99.90
28767;DHT22;15921;52.034;20.650;2023-05-07T02:28:06;6.30;99.90
28767;DHT22;15921;52.034;20.650;2023-05-07T02:30:32;6.30;99.90
28767;DHT22;15921;52.034;20.650;2023-05-07T02:32:58;6.40;99.90
28767;DHT22;15921;52.034;20.650;2023-05-07T02:35:25;6.30;99.90
28767;DHT22;15921;52.034;20.650;2023-05-07T02:37:50;6.40;99.90
28767;DHT22;15921;52.034;20.650;2023-05-07T02:40:16;6.30;99.90
28767;DHT22;15921;52.034;20.650;2023-05-07T02:42:42;6.40;99.90
28767;DHT22;15921;52.034;20.650;2023-05-07T02:45:08;6.40;99.90
28767;DHT22;15921;52.034;20.650;2023-05-07T02:47:34;6.40;99.90
28767;DHT22;15921;52.034;20.650;2023-05-07T02:49:59;6.30;99.90
28767;DHT22;15921;52.034;20.650;2023-05-07T02:52:25;6.30;99.90
28767;DHT22;15921;52.034;20.650;2023-05-07T02:54:51;6.30;99.90
28767;DHT22;15921;52.034;20.650;2023-05-07T02:57:16;6.40;99.90
28767;DHT22;15921;52.034;20.650;2023-05-07T02:59:42;6.40;99.90
28767;DHT22;15921;52.034;20.650;2023-05-07T03:02:08;6.40;99.90
28767;DHT22;15921;52.034;20.650;2023-05-07T03:04:34;6.40;99.90
28767;DHT22;15921;52.034;20.650;2023-05-07T03:07:00;6.40;99.90
28767;DHT22;15921;52.034;20.650;2023-05-07T03:09:25;6.40;99.90
28767;DHT22;15921;52.034;20.650;2023-05-07T03:11:51;6.40;99.90
28767;DHT22;15921;52.034;20.650;2023-05-07T03:14:17;6.40;99.90
28767;DHT22;15921;52.034;20.650;2023-05-07T03:16:43;6.40;99.90
28767;DHT22;15921;52.034;20.650;2023-05-07T03:19:08;6.40;99.90
28767;DHT22;15921;52.034;20.650;2023-05-07T03:21:34;6.40;99.90
28767;DHT22;15921;52.034;20.650;2023-05-07T03:24:00;6.40;99.90
28767;DHT22;15921;52.034;20.650;2023-05-07T03:26:26;6.30;99.90
28767;DHT22;15921;52.034;20.650;2023-05-07T03:28:51;6.40;99.90
28767;DHT22;15921;52.034;20.650;2023-05-07T03:31:17;6.30;99.90
28767;DHT22;15921;52.034;20.650;2023-05-07T03:33:55;6.30;99.90
28767;DHT22;15921;52.034;20.650;2023-05-07T03:36:21;6.40;99.90
28767;DHT22;15921;52.034;20.650;2023-05-07T03:38:47;6.40;99.90
28767;DHT22;15921;52.034;20.650;2023-05-07T03:41:13;6.40;99.90
28767;DHT22;15921;52.034;20.650;2023-05-07T03:43:39;6.40;99.90
28767;DHT22;15921;52.034;20.650;2023-05-07T03:46:04;6.40;99.90
28767;DHT22;15921;52.034;20.650;2023-05-07T03:48:30;6.40;99.90
28767;DHT22;15921;52.034;20.650;2023-05-07T03:50:57;6.40;99.90
28767;DHT22;15921;52.034;20.650;2023-05-07T03:53:23;6.40;99.90
28767;DHT22;15921;52.034;20.650;2023-05-07T03:55:48;6.40;99.90
28767;DHT22;15921;52.034;20.650;2023-05-07T03:58:15;6.50;99.90
28767;DHT22;15921;52.034;20.650;2023-05-07T04:00:41;6.50;99.90
28767;DHT22;15921;52.034;20.650;2023-05-07T04:03:07;6.60;99.90
28767;DHT22;15921;52.034;20.650;2023-05-07T04:05:33;6.50;99.90
28767;DHT22;15921;52.034;20.650;2023-05-07T04:07:59;6.60;99.90
28767;DHT22;15921;52.034;20.650;2023-05-07T04:10:25;6.60;99.90
28767;DHT22;15921;52.034;20.650;2023-05-07T04:12:50;6.60;99.90
28767;DHT22;15921;52.034;20.650;2023-05-07T04:15:16;6.60;99.90
28767;DHT22;15921;52.034;20.650;2023-05-07T04:17:42;6.60;99.90
28767;DHT22;15921;52.034;20.650;2023-05-07T04:20:16;6.60;99.90
28767;DHT22;15921;52.034;20.650;2023-05-07T04:22:42;6.60;99.90
28767;DHT22;15921;52.034;20.650;2023-05-07T04:25:08;6.60;99.90
28767;DHT22;15921;52.034;20.650;2023-05-07T04:27:35;6.60;99.90
28767;DHT22;15921;52.034;20.650;2023-05-07T04:30:01;6.50;99.90
28767;DHT22;15921;52.034;20.650;2023-05-07T04:32:28;6.50;99.90
28767;DHT22;15921;52.034;20.650;2023-05-07T04:34:57;6.60;99.90
28767;DHT22;15921;52.034;20.650;2023-05-07T04:37:23;6.50;99.90
28767;DHT22;15921;52.034;20.650;2023-05-07T04:39:49;6.60;99.90
28767;DHT22;15921;52.034;20.650;2023-05-07T04:42:18;6.60;99.90
28767;DHT22;15921;52.034;20.650;2023-05-07T04:44:44;6.60;99.90
28767;DHT22;15921;52.034;20.650;2023-05-07T04:47:11;6.70;99.90
28767;DHT22;15921;52.034;20.650;2023-05-07T04:49:38;6.80;99.90
28767;DHT22;15921;52.034;20.650;2023-05-07T04:52:04;6.80;99.90
28767;DHT22;15921;52.034;20.650;2023-05-07T04:54:30;6.80;99.90
28767;DHT22;15921;52.034;20.650;2023-05-07T04:56:56;6.80;99.90
28767;DHT22;15921;52.034;20.650;2023-05-07T04:59:21;6.80;99.90
28767;DHT22;15921;52.034;20.650;2023-05-07T05:01:47;6.80;99.90
28767;DHT22;15921;52.034;20.650;2023-05-07T05:04:13;6.80;99.90
28767;DHT22;15921;52.034;20.650;2023-05-07T05:06:39;6.70;99.90
28767;DHT22;15921;52.034;20.650;2023-05-07T05:09:05;6.80;99.90
28767;DHT22;15921;52.034;20.650;2023-05-07T05:11:31;6.80;99.90
28767;DHT22;15921;52.034;20.650;2023-05-07T05:13:58;6.80;99.90
28767;DHT22;15921;52.034;20.650;2023-05-07T05:16:24;6.80;99.90
28767;DHT22;15921;52.034;20.650;2023-05-07T05:18:49;6.80;99.90
28767;DHT22;15921;52.034;20.650;2023-05-07T05:21:17;6.90;99.90
28767;DHT22;15921;52.034;20.650;2023-05-07T05:23:43;7.00;99.90
28767;DHT22;15921;52.034;20.650;2023-05-07T05:26:08;7.00;99.90
28767;DHT22;15921;52.034;20.650;2023-05-07T05:28:34;7.10;99.90
28767;DHT22;15921;52.034;20.650;2023-05-07T05:31:00;7.10;99.90
28767;DHT22;15921;52.034;20.650;2023-05-07T05:33:26;7.20;99.90
28767;DHT22;15921;52.034;20.650;2023-05-07T05:35:51;7.20;99.90
28767;DHT22;15921;52.034;20.650;2023-05-07T05:38:17;7.20;99.90
28767;DHT22;15921;52.034;20.650;2023-05-07T05:40:43;7.20;99.90
28767;DHT22;15921;52.034;20.650;2023-05-07T05:43:08;7.30;99.90
28767;DHT22;15921;52.034;20.650;2023-05-07T05:45:34;7.40;99.90
28767;DHT22;15921;52.034;20.650;2023-05-07T05:48:00;7.50;99.90
28767;DHT22;15921;52.034;20.650;2023-05-07T05:50:26;7.60;99.90
28767;DHT22;15921;52.034;20.650;2023-05-07T05:52:51;7.50;99.90
28767;DHT22;15921;52.034;20.650;2023-05-07T05:55:17;7.40;99.90
28767;DHT22;15921;52.034;20.650;2023-05-07T05:57:43;7.40;99.90
28767;DHT22;15921;52.034;20.650;2023-05-07T06:00:09;7.40;99.90
28767;DHT22;15921;52.034;20.650;2023-05-07T06:02:35;7.50;99.90
28767;DHT22;15921;52.034;20.650;2023-05-07T06:05:01;7.60;99.90
28767;DHT22;15921;52.034;20.650;2023-05-07T06:07:26;7.80;99.90
28767;DHT22;15921;52.034;20.650;2023-05-07T06:09:52;7.90;99.90
28767;DHT22;15921;52.034;20.650;2023-05-07T06:12:20;7.90;99.90
28767;DHT22;15921;52.034;20.650;2023-05-07T06:14:46;7.90;99.90
28767;DHT22;15921;52.034;20.650;2023-05-07T06:17:12;8.00;99.90
28767;DHT22;15921;52.034;20.650;2023-05-07T06:19:38;8.10;99.90
28767;DHT22;15921;52.034;20.650;2023-05-07T06:22:04;8.10;99.90
28767;DHT22;15921;52.034;20.650;2023-05-07T06:24:29;8.10;99.90
28767;DHT22;15921;52.034;20.650;2023-05-07T06:26:55;8.30;99.90
28767;DHT22;15921;52.034;20.650;2023-05-07T06:29:21;8.50;99.90
28767;DHT22;15921;52.034;20.650;2023-05-07T06:31:46;8.90;99.90
28767;DHT22;15921;52.034;20.650;2023-05-07T06:34:12;9.30;99.90
28767;DHT22;15921;52.034;20.650;2023-05-07T06:36:41;9.50;99.90
28767;DHT22;15921;52.034;20.650;2023-05-07T06:39:07;9.50;99.90
28767;DHT22;15921;52.034;20.650;2023-05-07T06:41:32;9.60;99.90
28767;DHT22;15921;52.034;20.650;2023-05-07T06:43:58;9.50;99.90
28767;DHT22;15921;52.034;20.650;2023-05-07T06:46:24;9.50;99.90
28767;DHT22;15921;52.034;20.650;2023-05-07T06:48:49;9.50;99.90
28767;DHT22;15921;52.034;20.650;2023-05-07T06:51:15;9.40;99.90
28767;DHT22;15921;52.034;20.650;2023-05-07T06:53:41;9.50;99.90
28767;DHT22;15921;52.034;20.650;2023-05-07T06:56:06;9.50;99.90
28767;DHT22;15921;52.034;20.650;2023-05-07T06:58:32;9.50;99.90
28767;DHT22;15921;52.034;20.650;2023-05-07T07:00:58;9.60;99.90
28767;DHT22;15921;52.034;20.650;2023-05-07T07:03:24;9.60;99.90
28767;DHT22;15921;52.034;20.650;2023-05-07T07:05:53;9.60;99.90
28767;DHT22;15921;52.034;20.650;2023-05-07T07:08:18;9.50;99.90
28767;DHT22;15921;52.034;20.650;2023-05-07T07:10:46;9.60;99.90
28767;DHT22;15921;52.034;20.650;2023-05-07T07:13:13;9.70;99.90
28767;DHT22;15921;52.034;20.650;2023-05-07T07:15:38;9.80;99.90
28767;DHT22;15921;52.034;20.650;2023-05-07T07:18:05;10.00;99.90
28767;DHT22;15921;52.034;20.650;2023-05-07T07:20:31;10.10;99.90
28767;DHT22;15921;52.034;20.650;2023-05-07T07:22:57;10.30;99.90
28767;DHT22;15921;52.034;20.650;2023-05-07T07:25:23;10.60;99.90
28767;DHT22;15921;52.034;20.650;2023-05-07T07:27:49;10.90;99.90
28767;DHT22;15921;52.034;20.650;2023-05-07T07:30:15;11.00;99.90
28767;DHT22;15921;52.034;20.650;2023-05-07T07:32:41;11.20;99.90
28767;DHT22;15921;52.034;20.650;2023-05-07T07:35:07;11.30;99.90
28767;DHT22;15921;52.034;20.650;2023-05-07T07:37:33;11.30;99.90
28767;DHT22;15921;52.034;20.650;2023-05-07T07:39:58;11.10;99.90
28767;DHT22;15921;52.034;20.650;2023-05-07T07:42:24;10.90;99.90
28767;DHT22;15921;52.034;20.650;2023-05-07T07:44:49;11.20;99.90
28767;DHT22;15921;52.034;20.650;2023-05-07T07:47:15;11.40;99.90
28767;DHT22;15921;52.034;20.650;2023-05-07T07:49:41;11.50;99.90
28767;DHT22;15921;52.034;20.650;2023-05-07T07:52:06;11.50;99.90
28767;DHT22;15921;52.034;20.650;2023-05-07T07:54:32;11.40;99.90
28767;DHT22;15921;52.034;20.650;2023-05-07T07:56:58;11.30;99.90
28767;DHT22;15921;52.034;20.650;2023-05-07T07:59:24;11.10;99.90
28767;DHT22;15921;52.034;20.650;2023-05-07T08:01:49;11.00;99.90
28767;DHT22;15921;52.034;20.650;2023-05-07T08:04:17;10.70;99.90
28767;DHT22;15921;52.034;20.650;2023-05-07T08:06:43;10.70;99.90
28767;DHT22;15921;52.034;20.650;2023-05-07T08:09:08;10.70;99.90
28767;DHT22;15921;52.034;20.650;2023-05-07T08:11:34;10.80;99.90
28767;DHT22;15921;52.034;20.650;2023-05-07T08:14:00;10.80;99.90
28767;DHT22;15921;52.034;20.650;2023-05-07T08:16:26;11.00;99.90
28767;DHT22;15921;52.034;20.650;2023-05-07T08:18:52;11.30;99.90
28767;DHT22;15921;52.034;20.650;2023-05-07T08:21:18;11.50;99.90
28767;DHT22;15921;52.034;20.650;2023-05-07T08:23:43;11.60;99.90
28767;DHT22;15921;52.034;20.650;2023-05-07T08:26:09;11.70;99.90
28767;DHT22;15921;52.034;20.650;2023-05-07T08:28:35;11.70;99.90
28767;DHT22;15921;52.034;20.650;2023-05-07T08:31:01;11.60;99.90
28767;DHT22;15921;52.034;20.650;2023-05-07T08:33:27;11.40;99.90
28767;DHT22;15921;52.034;20.650;2023-05-07T08:35:52;11.10;99.90
28767;DHT22;15921;52.034;20.650;2023-05-07T08:38:18;11.10;99.90
28767;DHT22;15921;52.034;20.650;2023-05-07T08:40:44;11.00;99.90
28767;DHT22;15921;52.034;20.650;2023-05-07T08:43:13;11.20;99.90
28767;DHT22;15921;52.034;20.650;2023-05-07T08:45:40;11.50;99.90
28767;DHT22;15921;52.034;20.650;2023-05-07T08:48:15;11.60;99.90
28767;DHT22;15921;52.034;20.650;2023-05-07T08:50:41;11.50;99.90
28767;DHT22;15921;52.034;20.650;2023-05-07T08:53:07;11.50;99.90
28767;DHT22;15921;52.034;20.650;2023-05-07T08:55:32;11.30;99.90
28767;DHT22;15921;52.034;20.650;2023-05-07T08:57:59;11.10;99.90
28767;DHT22;15921;52.034;20.650;2023-05-07T09:00:25;10.80;99.90
28767;DHT22;15921;52.034;20.650;2023-05-07T09:02:51;10.90;99.90
28767;DHT22;15921;52.034;20.650;2023-05-07T09:05:17;11.20;99.90
28767;DHT22;15921;52.034;20.650;2023-05-07T09:07:43;11.20;99.90
28767;DHT22;15921;52.034;20.650;2023-05-07T09:10:09;11.20;99.90
28767;DHT22;15921;52.034;20.650;2023-05-07T09:12:34;11.00;99.90
28767;DHT22;15921;52.034;20.650;2023-05-07T09:15:03;10.90;99.90
28767;DHT22;15921;52.034;20.650;2023-05-07T09:17:29;10.80;99.90
28767;DHT22;15921;52.034;20.650;2023-05-07T09:19:55;10.70;99.90
28767;DHT22;15921;52.034;20.650;2023-05-07T09:22:21;10.60;99.90
28767;DHT22;15921;52.034;20.650;2023-05-07T09:24:51;10.50;99.90
28767;DHT22;15921;52.034;20.650;2023-05-07T09:27:17;10.50;99.90
28767;DHT22;15921;52.034;20.650;2023-05-07T09:29:44;10.50;99.90
28767;DHT22;15921;52.034;20.650;2023-05-07T09:32:10;10.50;99.90
28767;DHT22;15921;52.034;20.650;2023-05-07T09:34:36;10.50;99.90
28767;DHT22;15921;52.034;20.650;2023-05-07T09:37:03;10.50;99.90
28767;DHT22;15921;52.034;20.650;2023-05-07T09:39:40;10.50;99.90
28767;DHT22;15921;52.034;20.650;2023-05-07T09:42:07;10.50;99.90
28767;DHT22;15921;52.034;20.650;2023-05-07T09:44:33;10.40;99.90
28767;DHT22;15921;52.034;20.650;2023-05-07T09:47:00;10.40;99.90
28767;DHT22;15921;52.034;20.650;2023-05-07T09:49:29;10.30;99.90
28767;DHT22;15921;52.034;20.650;2023-05-07T09:51:56;10.30;99.90
28767;DHT22;15921;52.034;20.650;2023-05-07T09:54:24;10.40;99.90
28767;DHT22;15921;52.034;20.650;2023-05-07T09:56:52;11.00;99.90
28767;DHT22;15921;52.034;20.650;2023-05-07T09:59:18;11.70;99.90
28767;DHT22;15921;52.034;20.650;2023-05-07T10:01:45;12.00;99.90
28767;DHT22;15921;52.034;20.650;2023-05-07T10:04:12;11.90;99.90
28767;DHT22;15921;52.034;20.650;2023-05-07T10:06:38;12.00;99.90
28767;DHT22;15921;52.034;20.650;2023-05-07T10:09:05;12.10;99.90
28767;DHT22;15921;52.034;20.650;2023-05-07T10:11:33;12.60;99.90
28767;DHT22;15921;52.034;20.650;2023-05-07T10:14:00;13.00;99.30
28767;DHT22;15921;52.034;20.650;2023-05-07T10:16:36;13.20;97.40
28767;DHT22;15921;52.034;20.650;2023-05-07T10:19:07;13.10;95.60
28767;DHT22;15921;52.034;20.650;2023-05-07T10:22:00;12.80;95.30
28767;DHT22;15921;52.034;20.650;2023-05-07T10:24:32;12.90;95.10
28767;DHT22;15921;52.034;20.650;2023-05-07T10:27:01;13.40;94.40
28767;DHT22;15921;52.034;20.650;2023-05-07T10:29:45;13.70;93.50
28767;DHT22;15921;52.034;20.650;2023-05-07T10:34:45;14.30;91.00
28767;DHT22;15921;52.034;20.650;2023-05-07T10:37:13;14.80;90.20
28767;DHT22;15921;52.034;20.650;2023-05-07T10:39:40;15.20;88.30
28767;DHT22;15921;52.034;20.650;2023-05-07T10:42:10;15.10;86.40
28767;DHT22;15921;52.034;20.650;2023-05-07T10:44:37;14.90;85.40
28767;DHT22;15921;52.034;20.650;2023-05-07T10:47:13;14.60;85.10
28767;DHT22;15921;52.034;20.650;2023-05-07T10:52:21;15.20;82.80
28767;DHT22;15921;52.034;20.650;2023-05-07T10:54:47;15.70;81.40
28767;DHT22;15921;52.034;20.650;2023-05-07T10:57:38;15.90;79.30
28767;DHT22;15921;52.034;20.650;2023-05-07T11:05:29;15.60;77.80
28767;DHT22;15921;52.034;20.650;2023-05-07T11:08:03;15.30;78.60
28767;DHT22;15921;52.034;20.650;2023-05-07T11:10:48;15.00;79.40
28767;DHT22;15921;52.034;20.650;2023-05-07T11:13:14;14.80;80.10
28767;DHT22;15921;52.034;20.650;2023-05-07T11:15:43;15.00;80.30
28767;DHT22;15921;52.034;20.650;2023-05-07T11:18:10;15.30;79.40
28767;DHT22;15921;52.034;20.650;2023-05-07T11:26:07;14.90;77.80
28767;DHT22;15921;52.034;20.650;2023-05-07T11:28:37;14.60;79.30
28767;DHT22;15921;52.034;20.650;2023-05-07T11:31:03;14.70;79.40
28767;DHT22;15921;52.034;20.650;2023-05-07T11:33:30;14.80;78.80
28767;DHT22;15921;52.034;20.650;2023-05-07T11:35:56;14.90;78.20
28767;DHT22;15921;52.034;20.650;2023-05-07T11:38:23;14.70;78.80
28767;DHT22;15921;52.034;20.650;2023-05-07T11:40:53;14.60;79.60
28767;DHT22;15921;52.034;20.650;2023-05-07T11:43:19;14.50;79.20
28767;DHT22;15921;52.034;20.650;2023-05-07T11:45:46;14.40;79.50
28767;DHT22;15921;52.034;20.650;2023-05-07T11:48:15;14.60;79.90
28767;DHT22;15921;52.034;20.650;2023-05-07T11:50:52;14.60;79.00
28767;DHT22;15921;52.034;20.650;2023-05-07T11:53:18;14.90;78.80
28767;DHT22;15921;52.034;20.650;2023-05-07T11:55:45;15.10;77.20
28767;DHT22;15921;52.034;20.650;2023-05-07T11:58:12;15.10;76.90
28767;DHT22;15921;52.034;20.650;2023-05-07T12:00:52;15.30;76.50
28767;DHT22;15921;52.034;20.650;2023-05-07T12:03:19;15.60;75.90
28767;DHT22;15921;52.034;20.650;2023-05-07T12:05:46;16.00;74.80
28767;DHT22;15921;52.034;20.650;2023-05-07T12:08:19;16.40;73.90
28767;DHT22;15921;52.034;20.650;2023-05-07T12:10:47;16.70;72.30
28767;DHT22;15921;52.034;20.650;2023-05-07T12:13:21;16.50;71.50
28767;DHT22;15921;52.034;20.650;2023-05-07T12:15:51;16.40;72.00
28767;DHT22;15921;52.034;20.650;2023-05-07T12:18:17;16.40;71.50
28767;DHT22;15921;52.034;20.650;2023-05-07T12:20:43;16.70;71.20
28767;DHT22;15921;52.034;20.650;2023-05-07T12:23:10;16.40;71.00
28767;DHT22;15921;52.034;20.650;2023-05-07T12:25:40;16.30;71.10
28767;DHT22;15921;52.034;20.650;2023-05-07T12:28:13;16.00;72.00
28767;DHT22;15921;52.034;20.650;2023-05-07T12:30:40;15.60;72.50
28767;DHT22;15921;52.034;20.650;2023-05-07T12:33:07;15.50;73.20
28767;DHT22;15921;52.034;20.650;2023-05-07T12:35:39;15.80;73.30
28767;DHT22;15921;52.034;20.650;2023-05-07T12:38:10;16.00;72.10
28767;DHT22;15921;52.034;20.650;2023-05-07T12:40:42;15.60;72.20
28767;DHT22;15921;52.034;20.650;2023-05-07T12:43:24;15.20;72.70
28767;DHT22;15921;52.034;20.650;2023-05-07T12:45:51;14.70;74.10
28767;DHT22;15921;52.034;20.650;2023-05-07T12:48:17;14.50;76.00
28767;DHT22;15921;52.034;20.650;2023-05-07T12:50:44;14.30;76.20
28767;DHT22;15921;52.034;20.650;2023-05-07T12:53:11;14.30;76.80
28767;DHT22;15921;52.034;20.650;2023-05-07T12:55:45;14.60;75.90
28767;DHT22;15921;52.034;20.650;2023-05-07T12:58:25;14.90;75.10
28767;DHT22;15921;52.034;20.650;2023-05-07T13:00:52;14.90;75.00
28767;DHT22;15921;52.034;20.650;2023-05-07T13:03:23;14.70;75.50
28767;DHT22;15921;52.034;20.650;2023-05-07T13:05:49;14.50;76.40
28767;DHT22;15921;52.034;20.650;2023-05-07T13:08:30;14.10;77.30
28767;DHT22;15921;52.034;20.650;2023-05-07T13:10:57;13.80;78.10
28767;DHT22;15921;52.034;20.650;2023-05-07T13:13:23;13.80;78.70
28767;DHT22;15921;52.034;20.650;2023-05-07T13:15:49;13.90;78.80
28767;DHT22;15921;52.034;20.650;2023-05-07T13:18:14;14.30;78.00
28767;DHT22;15921;52.034;20.650;2023-05-07T13:20:40;14.70;77.10
28767;DHT22;15921;52.034;20.650;2023-05-07T13:23:06;15.90;75.00
28767;DHT22;15921;52.034;20.650;2023-05-07T13:25:32;19.70;69.20
28767;DHT22;15921;52.034;20.650;2023-05-07T13:27:57;23.40;58.30
28767;DHT22;15921;52.034;20.650;2023-05-07T13:30:23;22.90;55.80
28767;DHT22;15921;52.034;20.650;2023-05-07T13:32:49;21.60;56.50
28767;DHT22;15921;52.034;20.650;2023-05-07T13:35:16;20.40;58.30
28767;DHT22;15921;52.034;20.650;2023-05-07T13:37:41;19.30;59.70
28767;DHT22;15921;52.034;20.650;2023-05-07T13:40:08;18.40;61.30
28767;DHT22;15921;52.034;20.650;2023-05-07T13:42:33;17.60;63.20
28767;DHT22;15921;52.034;20.650;2023-05-07T13:44:59;16.90;64.90
28767;DHT22;15921;52.034;20.650;2023-05-07T13:47:25;16.40;66.50
28767;DHT22;15921;52.034;20.650;2023-05-07T13:49:51;16.00;67.20
28767;DHT22;15921;52.034;20.650;2023-05-07T13:52:17;15.70;68.40
28767;DHT22;15921;52.034;20.650;2023-05-07T13:54:42;15.60;69.30
28767;DHT22;15921;52.034;20.650;2023-05-07T13:57:08;19.20;65.60
28767;DHT22;15921;52.034;20.650;2023-05-07T13:59:34;23.70;55.80
28767;DHT22;15921;52.034;20.650;2023-05-07T14:02:00;23.40;52.90
28767;DHT22;15921;52.034;20.650;2023-05-07T14:04:25;22.40;53.00
28767;DHT22;15921;52.034;20.650;2023-05-07T14:06:51;21.20;54.70
28767;DHT22;15921;52.034;20.650;2023-05-07T14:09:17;19.80;56.20
28767;DHT22;15921;52.034;20.650;2023-05-07T14:11:42;18.70;58.60
28767;DHT22;15921;52.034;20.650;2023-05-07T14:14:08;17.50;60.40
28767;DHT22;15921;52.034;20.650;2023-05-07T14:16:37;16.80;62.50
28767;DHT22;15921;52.034;20.650;2023-05-07T14:19:03;16.40;63.70
28767;DHT22;15921;52.034;20.650;2023-05-07T14:21:29;16.20;64.60
28767;DHT22;15921;52.034;20.650;2023-05-07T14:23:55;16.80;64.60
28767;DHT22;15921;52.034;20.650;2023-05-07T14:26:22;17.70;62.80
28767;DHT22;15921;52.034;20.650;2023-05-07T14:28:48;17.80;61.50
28767;DHT22;15921;52.034;20.650;2023-05-07T14:31:14;17.40;62.10
28767;DHT22;15921;52.034;20.650;2023-05-07T14:33:40;16.90;62.40
28767;DHT22;15921;52.034;20.650;2023-05-07T14:36:06;16.50;64.20
28767;DHT22;15921;52.034;20.650;2023-05-07T14:38:32;17.00;64.40
28767;DHT22;15921;52.034;20.650;2023-05-07T14:40:58;19.30;61.00
28767;DHT22;15921;52.034;20.650;2023-05-07T14:43:24;22.80;55.00
28767;DHT22;15921;52.034;20.650;2023-05-07T14:45:49;23.90;51.20
28767;DHT22;15921;52.034;20.650;2023-05-07T14:48:15;26.10;48.20
28767;DHT22;15921;52.034;20.650;2023-05-07T14:50:42;27.80;45.20
28767;DHT22;15921;52.034;20.650;2023-05-07T14:53:08;27.30;44.00
28767;DHT22;15921;52.034;20.650;2023-05-07T14:55:34;25.40;45.00
28767;DHT22;15921;52.034;20.650;2023-05-07T14:58:00;26.20;45.40
28767;DHT22;15921;52.034;20.650;2023-05-07T15:00:26;26.00;44.60
28767;DHT22;15921;52.034;20.650;2023-05-07T15:02:52;24.40;45.60
28767;DHT22;15921;52.034;20.650;2023-05-07T15:05:17;23.00;47.60
28767;DHT22;15921;52.034;20.650;2023-05-07T15:07:44;21.80;49.40
28767;DHT22;15921;52.034;20.650;2023-05-07T15:10:10;20.80;51.40
28767;DHT22;15921;52.034;20.650;2023-05-07T15:12:36;20.20;52.80
28767;DHT22;15921;52.034;20.650;2023-05-07T15:15:02;19.30;53.60
28767;DHT22;15921;52.034;20.650;2023-05-07T15:17:28;18.50;55.00
28767;DHT22;15921;52.034;20.650;2023-05-07T15:19:53;17.80;57.00
28767;DHT22;15921;52.034;20.650;2023-05-07T15:22:19;17.40;58.00
28767;DHT22;15921;52.034;20.650;2023-05-07T15:24:46;17.30;58.20
28767;DHT22;15921;52.034;20.650;2023-05-07T15:27:12;17.70;57.90
28767;DHT22;15921;52.034;20.650;2023-05-07T15:29:38;17.90;57.50
28767;DHT22;15921;52.034;20.650;2023-05-07T15:32:03;21.20;54.40
28767;DHT22;15921;52.034;20.650;2023-05-07T15:34:29;24.40;48.90
28767;DHT22;15921;52.034;20.650;2023-05-07T15:36:56;26.10;45.80